createdAt,value
2022-10-11T04:41:47.288Z,7.73
2022-10-11T04:44:14.310Z,7.89
2022-10-11T04:46:41.582Z,8.02
2022-10-11T04:49:08.783Z,8.19
2022-10-11T04:51:35.788Z,8.33
2022-10-11T04:54:02.770Z,8.41
2022-10-11T04:56:30.963Z,8.42
2022-10-11T04:58:57.918Z,8.58
2022-10-11T05:01:24.922Z,8.67
2022-10-11T05:03:51.857Z,8.76
2022-10-11T05:06:19.022Z,8.80
2022-10-11T05:08:46.011Z,8.81
2022-10-11T05:11:16.184Z,8.88
2022-10-11T05:13:44.584Z,8.92
2022-10-11T05:16:12.595Z,8.88
2022-10-11T05:18:40.060Z,8.83
2022-10-11T05:21:14.245Z,8.81
2022-10-11T05:23:41.777Z,8.78
2022-10-11T05:26:09.071Z,8.73
2022-10-11T05:28:36.744Z,8.65
2022-10-11T05:31:04.609Z,8.54
2022-10-11T05:33:32.062Z,8.51
2022-10-11T05:35:59.141Z,8.48
2022-10-11T05:38:26.796Z,8.43
2022-10-11T05:40:54.406Z,8.38
2022-10-11T05:43:21.342Z,8.34
2022-10-11T05:45:49.178Z,8.33
2022-10-11T05:48:16.120Z,8.28
2022-10-11T05:50:43.092Z,8.24
2022-10-11T05:53:10.605Z,8.25
2022-10-11T05:55:38.722Z,8.27
2022-10-11T05:58:08.718Z,8.26
2022-10-11T06:00:38.282Z,8.25
2022-10-11T06:03:07.037Z,8.21
2022-10-11T06:05:35.480Z,8.21
2022-10-11T06:08:03.878Z,8.22
2022-10-11T06:10:30.877Z,8.24
2022-10-11T06:12:58.125Z,8.22
2022-10-11T06:15:25.554Z,8.26
2022-10-11T06:17:53.024Z,8.26
2022-10-11T06:20:20.004Z,8.27
2022-10-11T06:22:47.061Z,8.32
2022-10-11T06:25:14.096Z,8.33
2022-10-11T06:27:41.074Z,8.44
2022-10-11T06:30:08.496Z,8.54
2022-10-11T06:32:35.616Z,8.59
2022-10-11T06:35:03.755Z,8.65
2022-10-11T06:37:30.828Z,8.69
2022-10-11T06:39:57.975Z,8.69
2022-10-11T06:42:25.026Z,8.73
2022-10-11T06:44:52.043Z,8.80
2022-10-11T06:47:19.390Z,8.83
2022-10-11T06:49:46.376Z,8.90
2022-10-11T06:52:13.302Z,8.95
2022-10-11T06:54:44.748Z,8.98
2022-10-11T06:57:12.597Z,9.10
2022-10-11T06:59:39.606Z,9.11
2022-10-11T07:02:06.860Z,9.14
2022-10-11T07:04:34.244Z,9.24
2022-10-11T07:07:01.303Z,9.30
2022-10-11T07:09:28.370Z,9.44
2022-10-11T07:11:55.736Z,9.46
2022-10-11T07:14:22.859Z,9.46
2022-10-11T07:16:49.880Z,9.45
2022-10-11T07:19:16.933Z,9.48
2022-10-11T07:21:44.056Z,9.42
2022-10-11T07:24:10.975Z,9.46
2022-10-11T07:26:38.755Z,9.43
2022-10-11T07:29:11.308Z,9.47
2022-10-11T07:31:40.946Z,9.52
2022-10-11T07:34:08.748Z,9.56
2022-10-11T07:36:35.816Z,9.54
2022-10-11T07:39:05.758Z,9.61
2022-10-11T07:41:32.868Z,9.65
2022-10-11T07:44:01.031Z,9.69
2022-10-11T07:46:28.015Z,9.68
2022-10-11T07:48:55.999Z,9.87
2022-10-11T07:51:24.270Z,9.94
2022-10-11T07:53:54.095Z,10.05
2022-10-11T07:56:24.076Z,10.12
2022-10-11T07:58:56.424Z,10.22
2022-10-11T08:01:24.449Z,10.41
2022-10-11T08:03:51.591Z,10.47
2022-10-11T08:06:21.903Z,10.60
2022-10-11T08:08:49.646Z,10.66
2022-10-11T08:11:24.913Z,10.76
2022-10-11T08:13:52.666Z,10.82
2022-10-11T08:16:20.033Z,10.95
2022-10-11T08:18:47.287Z,10.95
2022-10-11T08:21:16.822Z,10.92
2022-10-11T08:23:44.226Z,11.08
2022-10-11T08:26:11.415Z,11.24
2022-10-11T08:28:38.588Z,11.23
2022-10-11T08:31:07.603Z,11.27
2022-10-11T08:33:34.624Z,11.30
2022-10-11T08:36:06.082Z,11.33
2022-10-11T08:38:33.565Z,11.43
2022-10-11T08:41:01.318Z,11.57
2022-10-11T08:43:59.365Z,11.64
2022-10-11T08:46:30.921Z,11.66
2022-10-11T08:48:58.597Z,11.61
2022-10-11T08:51:30.727Z,11.70
2022-10-11T08:54:07.847Z,11.67
2022-10-11T08:56:40.241Z,11.70
2022-10-11T08:59:13.166Z,11.74
2022-10-11T09:02:03.323Z,11.76
2022-10-11T09:04:32.307Z,11.81
2022-10-11T09:07:21.764Z,11.88
2022-10-11T09:10:03.256Z,11.98
2022-10-11T09:13:05.805Z,12.02
2022-10-11T09:16:03.730Z,12.25
2022-10-11T09:19:11.810Z,12.44
2022-10-11T09:21:59.425Z,12.56
2022-10-11T09:24:38.586Z,12.71
2022-10-11T09:27:15.242Z,12.78
2022-10-11T09:30:14.705Z,12.84
2022-10-11T09:32:51.794Z,12.93
2022-10-11T09:35:23.692Z,12.98
2022-10-11T09:38:17.595Z,13.12
2022-10-11T09:40:54.916Z,13.23
2022-10-11T09:43:22.515Z,13.33
2022-10-11T09:45:49.961Z,13.32
2022-10-11T09:48:23.675Z,13.45
2022-10-11T09:50:52.767Z,13.57
2022-10-11T09:53:58.293Z,13.78
2022-10-11T09:56:29.819Z,13.70
2022-10-11T09:59:19.176Z,13.92
2022-10-11T10:01:49.824Z,13.91
2022-10-11T10:04:21.690Z,13.94
2022-10-11T10:07:10.677Z,13.91
2022-10-11T10:09:38.464Z,14.01
2022-10-11T10:12:20.951Z,14.06
2022-10-11T10:15:14.939Z,14.27
2022-10-11T10:17:53.171Z,14.48
2022-10-11T10:20:27.665Z,14.57
2022-10-11T10:23:10.025Z,14.88
2022-10-11T10:25:43.558Z,15.08
2022-10-11T10:28:28.245Z,15.25
2022-10-11T10:30:58.022Z,15.24
2022-10-11T10:33:32.874Z,15.34
2022-10-11T10:36:18.947Z,15.66
2022-10-11T10:38:58.696Z,15.61
2022-10-11T10:41:26.158Z,15.70
2022-10-11T10:43:57.169Z,15.95
2022-10-11T10:46:50.279Z,16.32
2022-10-11T10:52:41.865Z,16.47
2022-10-11T10:55:33.226Z,16.45
2022-10-11T10:58:24.771Z,16.50
2022-10-11T11:01:25.895Z,16.73
2022-10-11T11:04:10.225Z,16.70
2022-10-11T11:07:07.803Z,17.01
2022-10-11T11:10:03.550Z,17.07
2022-10-11T11:12:45.834Z,17.45
2022-10-11T11:15:19.872Z,17.67
2022-10-11T11:18:13.491Z,17.80
2022-10-11T11:21:12.940Z,17.85
2022-10-11T11:24:07.877Z,18.04
2022-10-11T11:26:59.095Z,18.38
2022-10-11T11:29:44.642Z,18.60
2022-10-11T11:32:24.529Z,18.52
2022-10-11T11:35:01.246Z,18.65
2022-10-11T11:37:43.643Z,19.06
2022-10-11T11:40:20.743Z,18.87
2022-10-11T11:42:57.674Z,18.85
2022-10-11T11:45:36.246Z,18.90
2022-10-11T11:48:07.836Z,18.75
2022-10-11T11:50:42.136Z,18.60
2022-10-11T11:53:32.439Z,18.68
2022-10-11T11:56:25.832Z,18.89
2022-10-11T11:59:03.210Z,18.86
2022-10-11T12:01:35.790Z,18.46
2022-10-11T12:04:18.351Z,17.90
2022-10-11T12:07:11.272Z,17.32
2022-10-11T12:09:34.782Z,17.13
2022-10-11T12:12:11.095Z,16.90
2022-10-11T12:14:41.302Z,16.53
2022-10-11T12:17:26.212Z,16.44
2022-10-11T12:20:14.889Z,16.58
2022-10-11T12:22:54.127Z,16.62
2022-10-11T12:25:38.426Z,16.64
2022-10-11T12:28:43.644Z,16.31
2022-10-11T12:31:40.293Z,16.27
2022-10-11T12:34:22.770Z,16.26
2022-10-11T12:36:51.375Z,16.17
2022-10-11T12:39:18.296Z,16.15
2022-10-11T12:41:50.953Z,16.06
2022-10-11T12:44:32.254Z,16.33
2022-10-11T12:47:16.690Z,17.41
2022-10-11T12:50:00.849Z,18.78
2022-10-11T12:52:41.686Z,18.85
2022-10-11T12:55:56.291Z,19.17
2022-10-11T12:58:26.973Z,18.89
2022-10-11T13:00:58.045Z,18.61
2022-10-11T13:03:39.237Z,18.30
2022-10-11T13:06:17.411Z,18.18
2022-10-11T13:08:50.166Z,18.09
2022-10-11T13:11:21.600Z,18.54
2022-10-11T13:13:51.221Z,19.23
2022-10-11T13:16:29.906Z,19.06
2022-10-11T13:18:59.948Z,19.18
2022-10-11T13:21:39.329Z,18.59
2022-10-11T13:24:18.636Z,18.28
2022-10-11T13:26:50.246Z,18.30
2022-10-11T13:29:23.360Z,18.01
2022-10-11T13:31:50.712Z,17.66
2022-10-11T13:34:23.062Z,17.22
2022-10-11T13:36:56.456Z,16.76
2022-10-11T13:39:31.500Z,16.44
2022-10-11T13:42:00.211Z,16.37
2022-10-11T13:44:27.496Z,16.25
2022-10-11T13:46:55.379Z,16.04
2022-10-11T13:49:46.934Z,16.07
2022-10-11T13:52:23.751Z,15.88
2022-10-11T13:54:53.510Z,15.67
2022-10-11T13:57:37.552Z,15.49
2022-10-11T14:00:23.917Z,15.57
2022-10-11T14:03:20.392Z,15.62
2022-10-11T14:05:59.449Z,15.66
2022-10-11T14:08:41.389Z,15.61
2022-10-11T14:11:11.299Z,15.55
2022-10-11T14:13:47.380Z,15.66
2022-10-11T14:16:36.248Z,15.51
2022-10-11T14:19:10.642Z,15.58
2022-10-11T14:21:52.154Z,15.62
2022-10-11T14:24:19.834Z,15.72
2022-10-11T14:26:53.851Z,15.83
2022-10-11T14:29:26.493Z,15.77
2022-10-11T14:32:02.058Z,15.78
2022-10-11T14:34:32.081Z,15.81
2022-10-11T14:37:01.412Z,15.86
2022-10-11T14:39:31.245Z,15.78
2022-10-11T14:41:58.783Z,15.73
2022-10-11T14:44:26.275Z,15.75
2022-10-11T14:46:54.659Z,15.77
2022-10-11T14:49:25.151Z,15.77
2022-10-11T14:51:54.028Z,16.09
2022-10-11T14:54:23.505Z,16.36
2022-10-11T14:56:55.827Z,17.07
2022-10-11T14:59:26.287Z,17.45
2022-10-11T15:01:54.318Z,17.45
2022-10-11T15:04:22.918Z,17.56
2022-10-11T15:06:51.398Z,17.67
2022-10-11T15:09:20.866Z,17.63
2022-10-11T15:11:52.561Z,17.34
2022-10-11T15:14:19.986Z,17.02
2022-10-11T15:16:47.523Z,16.75
2022-10-11T15:19:23.862Z,16.32
2022-10-11T15:21:51.071Z,15.87
2022-10-11T15:24:21.457Z,15.69
2022-10-11T15:26:49.275Z,15.45
2022-10-11T15:29:17.990Z,15.31
2022-10-11T15:31:46.141Z,15.30
2022-10-11T15:34:13.103Z,15.17
2022-10-11T15:36:40.244Z,15.04
2022-10-11T15:39:28.292Z,14.88
2022-10-11T15:41:55.277Z,14.86
2022-10-11T15:44:22.272Z,14.80
2022-10-11T15:46:49.557Z,14.71
2022-10-11T15:49:17.137Z,14.65
2022-10-11T15:51:44.221Z,14.58
2022-10-11T15:54:11.206Z,14.56
2022-10-11T15:56:38.267Z,14.45
2022-10-11T15:59:05.218Z,14.50
2022-10-11T16:01:32.255Z,14.37
2022-10-11T16:04:01.373Z,14.36
2022-10-11T16:06:28.378Z,14.32
2022-10-11T16:08:55.647Z,14.32
2022-10-11T16:11:22.645Z,14.26
2022-10-11T16:13:49.930Z,14.26
2022-10-11T16:16:16.937Z,14.19
2022-10-11T16:18:43.919Z,14.17
2022-10-11T16:21:14.108Z,14.15
2022-10-11T16:23:41.174Z,14.15
2022-10-11T16:26:13.333Z,14.14
2022-10-11T16:28:42.033Z,14.04
2022-10-11T16:31:15.476Z,13.97
2022-10-11T16:33:50.992Z,14.00
2022-10-11T16:36:36.506Z,14.01
2022-10-11T16:39:08.284Z,13.88
2022-10-11T16:41:35.130Z,13.99
2022-10-11T16:44:03.569Z,13.93
2022-10-11T16:46:31.857Z,13.87
2022-10-11T16:48:59.299Z,13.95
2022-10-11T16:51:26.321Z,13.95
2022-10-11T16:53:53.426Z,13.91
2022-10-11T16:56:22.682Z,13.85
2022-10-11T16:58:49.717Z,13.89
2022-10-11T17:01:16.816Z,13.88
2022-10-11T17:03:44.093Z,13.78
2022-10-11T17:06:11.125Z,13.86
2022-10-11T17:08:39.247Z,13.83
2022-10-11T17:11:06.626Z,13.84
2022-10-11T17:13:33.722Z,13.82
2022-10-11T17:16:00.763Z,13.81
2022-10-11T17:18:27.885Z,13.88
2022-10-11T17:21:06.096Z,13.82
2022-10-11T17:23:34.789Z,13.84
2022-10-11T17:26:08.595Z,13.80
2022-10-11T17:28:38.167Z,13.75
2022-10-11T17:31:05.803Z,13.67
2022-10-11T17:33:33.770Z,13.56
2022-10-11T17:36:01.660Z,13.54
2022-10-11T17:38:29.192Z,13.53
2022-10-11T17:41:04.958Z,13.49
2022-10-11T17:43:32.285Z,13.45
2022-10-11T17:46:01.127Z,13.47
2022-10-11T17:48:28.871Z,13.43
2022-10-11T17:50:56.156Z,13.38
2022-10-11T17:53:23.464Z,13.40
2022-10-11T17:55:50.991Z,13.41
2022-10-11T17:58:18.355Z,13.41
2022-10-11T18:00:45.529Z,13.41
2022-10-11T18:03:12.597Z,13.40
2022-10-11T18:05:40.634Z,13.41
2022-10-11T18:08:08.221Z,13.39
2022-10-11T18:10:36.998Z,13.36
2022-10-11T18:13:06.846Z,13.35
2022-10-11T18:15:34.428Z,13.39
2022-10-11T18:18:01.909Z,13.41
2022-10-11T18:20:28.882Z,13.43
2022-10-11T18:22:55.884Z,13.44
2022-10-11T18:25:22.882Z,13.48
2022-10-11T18:27:51.380Z,13.50
2022-10-11T18:30:18.915Z,13.45
2022-10-11T18:32:46.147Z,13.51
2022-10-11T18:35:13.189Z,13.54
2022-10-11T18:37:40.231Z,13.60
2022-10-11T18:40:07.531Z,13.65
2022-10-11T18:42:34.537Z,13.59
2022-10-11T18:45:01.887Z,13.64
2022-10-11T18:47:29.182Z,13.66
2022-10-11T18:49:56.158Z,13.47
2022-10-11T18:52:23.357Z,13.46
2022-10-11T18:54:50.369Z,13.54
2022-10-11T18:57:17.367Z,13.60
2022-10-11T18:59:44.432Z,13.55
2022-10-11T19:02:12.456Z,13.49
2022-10-11T19:04:39.758Z,13.56
2022-10-11T19:07:07.144Z,13.40
2022-10-11T19:09:34.209Z,13.41
2022-10-11T19:12:01.278Z,13.38
2022-10-11T19:14:30.295Z,13.41
2022-10-11T19:16:57.812Z,13.40
2022-10-11T19:19:27.032Z,13.36
2022-10-11T19:21:54.494Z,13.40
2022-10-11T19:24:23.732Z,13.42
2022-10-11T19:26:52.937Z,13.40
2022-10-11T19:29:22.539Z,13.35
2022-10-11T19:32:00.746Z,13.36
2022-10-11T19:34:28.632Z,13.31
2022-10-11T19:37:01.335Z,13.26
2022-10-11T19:39:29.666Z,13.29
2022-10-11T19:41:56.934Z,13.31
2022-10-11T19:44:24.087Z,13.23
2022-10-11T19:46:52.280Z,13.23
2022-10-11T19:49:24.037Z,13.19
2022-10-11T19:51:51.778Z,13.21
2022-10-11T19:54:19.148Z,13.22
2022-10-11T19:56:46.376Z,13.19
2022-10-11T19:59:14.542Z,13.10
2022-10-11T20:01:42.353Z,13.10
2022-10-11T20:04:33.167Z,13.13
2022-10-11T20:06:59.404Z,13.06
2022-10-11T20:09:30.768Z,13.01
2022-10-11T20:11:58.864Z,13.00
2022-10-11T20:14:26.332Z,12.91
2022-10-11T20:16:53.531Z,12.75
2022-10-11T20:19:25.043Z,12.81
2022-10-11T20:21:54.970Z,12.81
2022-10-11T20:24:22.290Z,12.77
2022-10-11T20:26:49.237Z,12.74
2022-10-11T20:29:16.861Z,12.62
2022-10-11T20:31:43.875Z,12.57
2022-10-11T20:34:11.577Z,12.47
2022-10-11T20:36:38.890Z,12.37
2022-10-11T20:39:06.769Z,12.32
2022-10-11T20:41:37.259Z,12.13
2022-10-11T20:44:05.149Z,11.86
2022-10-11T20:46:34.509Z,11.84
2022-10-11T20:49:04.263Z,11.79
2022-10-11T20:51:33.599Z,11.83
2022-10-11T20:54:02.104Z,11.77
2022-10-11T20:56:30.026Z,11.69
2022-10-11T20:58:58.473Z,11.67
2022-10-11T21:01:34.761Z,11.57
2022-10-11T21:04:02.133Z,11.47
2022-10-11T21:06:30.733Z,11.41
2022-10-11T21:09:01.296Z,11.41
2022-10-11T21:11:31.178Z,11.40
2022-10-11T21:14:03.123Z,11.41
2022-10-11T21:16:30.293Z,11.40
2022-10-11T21:18:59.110Z,11.38
2022-10-11T21:21:27.788Z,11.34
2022-10-11T21:23:58.854Z,11.31
2022-10-11T21:26:27.370Z,11.28
2022-10-11T21:28:54.787Z,11.22
2022-10-11T21:31:23.013Z,11.13
2022-10-11T21:33:50.315Z,11.03
2022-10-11T21:36:19.758Z,10.97
2022-10-11T21:38:47.278Z,10.94
2022-10-11T21:41:20.204Z,10.90
2022-10-11T21:43:47.667Z,10.85
2022-10-11T21:46:23.776Z,10.80
2022-10-11T21:48:52.215Z,10.74
2022-10-11T21:51:24.758Z,10.66
2022-10-11T21:53:52.505Z,10.65
2022-10-11T21:56:19.731Z,10.63
2022-10-11T21:58:48.144Z,10.63
2022-10-11T22:01:16.661Z,10.64
2022-10-11T22:03:44.108Z,10.65
2022-10-11T22:06:11.300Z,10.62
2022-10-11T22:08:38.946Z,10.55
2022-10-11T22:11:06.721Z,10.45
2022-10-11T22:13:34.713Z,10.44
2022-10-11T22:16:09.838Z,10.46
2022-10-11T22:18:37.171Z,10.38
2022-10-11T22:21:12.774Z,10.31
2022-10-11T22:23:41.225Z,10.33
2022-10-11T22:26:20.739Z,10.34
2022-10-11T22:28:47.973Z,10.26
2022-10-11T22:31:17.725Z,10.27
2022-10-11T22:36:18.920Z,10.19
